Time;durP1;ratioP1;P1;durP2;ratioP2;P2;SDS_P1;SDS_P2;PMS_P1;PMS_P2;Temp;Humidity;BMP_temperature;BMP_pressure;BME280_temperature;BME280_humidity;BME280_pressure;Samples;Min_cycle;Max_cycle;Signal;HPM_P1;HPM_P2
2021/06/10 00:00:18;;;;;;;11.73;10.57;;;;;;;18.91;66.74;97133.91;5054080;28;20183;-65
2021/06/10 00:02:44;;;;;;;13.10;11.90;;;;;;;18.81;67.57;97134.38;5054215;28;20199;-66
2021/06/10 00:05:11;;;;;;;13.23;11.93;;;;;;;18.72;68.45;97133.75;5053201;28;20524;-67
2021/06/10 00:07:37;;;;;;;14.57;12.00;;;;;;;18.50;69.47;97134.00;5052833;28;20453;-67
2021/06/10 00:10:22;;;;;;;12.63;11.33;;;;;;;18.54;69.67;97134.41;5054552;28;20440;-66
2021/06/10 00:12:49;;;;;;;17.33;11.50;;;;;;;18.71;68.83;97124.16;5054923;28;20691;-66
2021/06/10 00:15:17;;;;;;;13.00;11.63;;;;;;;18.37;70.27;97120.72;5050396;28;20798;-67
2021/06/10 00:17:43;;;;;;;13.87;12.47;;;;;;;18.36;70.49;97127.06;5043804;28;20552;-67
2021/06/10 00:20:13;;;;;;;13.50;12.10;;;;;;;18.36;70.49;97130.50;5054219;28;20454;-66
2021/06/10 00:22:39;;;;;;;15.10;11.83;;;;;;;18.34;70.22;97129.88;5050459;28;20445;-67
2021/06/10 00:25:06;;;;;;;15.57;12.70;;;;;;;18.43;69.83;97127.84;5053840;28;20426;-66
2021/06/10 00:27:32;;;;;;;14.20;12.33;;;;;;;18.11;71.20;97128.44;5053371;28;20601;-66
2021/06/10 00:29:58;;;;;;;15.97;12.07;;;;;;;18.36;70.03;97122.56;5054508;28;20421;-67
2021/06/10 00:32:23;;;;;;;13.60;11.50;;;;;;;18.41;69.64;97121.94;5053560;28;20859;-65
2021/06/10 00:34:49;;;;;;;14.23;12.83;;;;;;;18.47;69.38;97128.25;5039699;28;20199;-66
2021/06/10 00:37:15;;;;;;;13.30;12.00;;;;;;;18.40;69.49;97129.09;5051795;28;20183;-66
2021/06/10 00:39:41;;;;;;;12.77;11.57;;;;;;;18.38;69.83;97125.03;5052447;28;20183;-66
2021/06/10 00:42:08;;;;;;;13.40;11.40;;;;;;;18.51;69.21;97124.19;5052382;28;20305;-66
2021/06/10 00:44:34;;;;;;;17.23;12.60;;;;;;;18.36;69.67;97121.75;5052909;28;20418;-66
2021/06/10 00:47:00;;;;;;;12.73;11.37;;;;;;;18.42;69.27;97128.88;5037552;28;20422;-65
2021/06/10 00:49:26;;;;;;;13.23;11.83;;;;;;;18.25;69.86;97125.81;5053520;28;21083;-66
2021/06/10 00:51:52;;;;;;;12.53;11.03;;;;;;;18.13;70.12;97130.09;5053480;28;20437;-67
2021/06/10 00:54:17;;;;;;;13.57;12.27;;;;;;;18.31;69.43;97125.00;5052243;28;20714;-67
2021/06/10 00:56:44;;;;;;;12.43;11.13;;;;;;;18.20;69.97;97131.72;5054004;28;20558;-68
2021/06/10 00:59:09;;;;;;;13.30;11.10;;;;;;;18.15;70.20;97125.41;5049370;28;20187;-67
2021/06/10 01:01:35;;;;;;;11.83;10.63;;;;;;;18.15;70.23;97134.16;5041263;28;20767;-69
2021/06/10 01:04:00;;;;;;;11.63;10.53;;;;;;;17.91;71.24;97130.25;5051780;28;20203;-67
2021/06/10 01:06:40;;;;;;;11.33;10.23;;;;;;;18.33;69.55;97144.19;5053321;28;20517;-70
2021/06/10 01:09:19;;;;;;;11.60;9.80;;;;;;;18.49;68.74;97145.63;5053021;28;20237;-66
2021/06/10 01:11:49;;;;;;;12.67;11.37;;;;;;;18.56;68.05;97141.13;5052237;28;20897;-67
2021/06/10 01:14:40;;;;;;;11.70;10.60;;;;;;;18.46;68.21;97138.06;5039556;28;20505;-67
2021/06/10 01:17:06;;;;;;;13.23;11.40;;;;;;;18.37;68.76;97139.31;5031422;28;20412;-66
2021/06/10 01:19:40;;;;;;;11.43;10.37;;;;;;;18.51;67.99;97140.09;5036335;28;20417;-66
2021/06/10 01:22:25;;;;;;;11.40;10.20;;;;;;;18.53;67.92;97138.88;5048619;28;20442;-66
2021/06/10 01:25:03;;;;;;;12.37;11.17;;;;;;;18.53;67.99;97133.56;5051782;28;20446;-69
2021/06/10 01:27:30;;;;;;;11.60;10.50;;;;;;;18.27;68.65;97129.88;5056282;28;20406;-67
2021/06/10 01:30:14;;;;;;;11.70;10.50;;;;;;;18.45;68.18;97135.63;5051034;28;20418;-66
2021/06/10 01:32:54;;;;;;;11.30;10.20;;;;;;;18.52;67.74;97128.47;5036938;28;20439;-66
2021/06/10 01:35:23;;;;;;;12.33;11.13;;;;;;;18.52;67.66;97134.63;5050867;28;20421;-66
2021/06/10 01:37:51;;;;;;;11.77;10.67;;;;;;;18.52;67.69;97126.66;5043860;28;20505;-65
2021/06/10 01:40:17;;;;;;;11.40;10.30;;;;;;;18.50;67.72;97128.69;5052308;28;20552;-67
2021/06/10 01:42:43;;;;;;;10.60;9.70;;;;;;;18.52;67.50;97131.97;5043791;28;20945;-67
2021/06/10 01:45:10;;;;;;;11.13;10.03;;;;;;;18.50;67.33;97128.69;5053439;28;20490;-66
2021/06/10 01:47:37;;;;;;;11.70;10.63;;;;;;;18.48;67.43;97130.72;5050565;28;20206;-67
2021/06/10 01:50:04;;;;;;;11.10;10.00;;;;;;;18.48;67.48;97122.75;5051787;28;20425;-66
2021/06/10 01:52:30;;;;;;;10.87;9.87;;;;;;;18.48;67.39;97119.28;5050919;28;20449;-67
2021/06/10 01:54:56;;;;;;;15.70;10.73;;;;;;;18.45;67.36;97115.22;5050959;28;20796;-67
2021/06/10 01:57:23;;;;;;;11.10;10.00;;;;;;;18.41;67.49;97109.50;5052468;28;20533;-67
2021/06/10 01:59:49;;;;;;;10.67;9.73;;;;;;;18.38;67.49;97109.91;5052515;28;20512;-66
2021/06/10 02:02:15;;;;;;;11.33;10.27;;;;;;;18.35;67.79;97110.31;5050806;28;20445;-66
2021/06/10 02:04:41;;;;;;;11.33;10.17;;;;;;;18.28;67.83;97104.19;5050505;28;20494;-67
2021/06/10 02:07:08;;;;;;;11.23;10.13;;;;;;;18.00;68.68;97102.53;5034193;28;20431;-66
2021/06/10 02:09:33;;;;;;;12.00;10.90;;;;;;;18.00;69.10;97112.34;5049737;28;20670;-66
2021/06/10 02:12:00;;;;;;;13.03;11.23;;;;;;;18.08;68.52;97104.19;5035654;28;20422;-68
2021/06/10 02:14:26;;;;;;;12.73;10.83;;;;;;;18.11;68.29;97106.44;5041906;28;20193;-67
2021/06/10 02:16:52;;;;;;;11.80;10.60;;;;;;;18.16;67.91;97103.97;5035523;28;20513;-66
2021/06/10 02:19:18;;;;;;;13.70;10.73;;;;;;;18.17;67.85;97108.25;5037815;28;20184;-66
2021/06/10 02:21:44;;;;;;;12.07;10.90;;;;;;;18.18;67.85;97104.59;5048301;28;20417;-66
2021/06/10 02:24:14;;;;;;;12.73;10.17;;;;;;;17.93;68.58;97104.34;5053441;28;20193;-66
2021/06/10 02:26:40;;;;;;;12.47;11.17;;;;;;;17.62;69.86;97103.88;5044691;28;20194;-66
2021/06/10 02:29:06;;;;;;;12.90;11.60;;;;;;;17.59;70.56;97100.78;5057180;28;20495;-66
2021/06/10 02:31:32;;;;;;;15.23;10.33;;;;;;;17.63;70.44;97108.16;5057560;28;20417;-66
2021/06/10 02:33:58;;;;;;;17.37;11.70;;;;;;;17.71;70.08;97106.34;5038172;28;20203;-68
2021/06/10 02:36:24;;;;;;;14.70;11.30;;;;;;;17.75;69.93;97099.63;5056379;28;20451;-66
2021/06/10 02:38:53;;;;;;;13.40;12.17;;;;;;;17.74;70.10;97098.78;5042858;28;20494;-66
2021/06/10 02:41:22;;;;;;;14.10;12.70;;;;;;;17.90;69.48;97102.91;5054852;28;20199;-66
2021/06/10 02:43:49;;;;;;;12.03;10.80;;;;;;;17.95;69.06;97097.81;5055814;28;21058;-66
2021/06/10 02:46:16;;;;;;;12.70;11.47;;;;;;;17.94;69.02;97104.13;5038840;28;20790;-65
2021/06/10 02:48:42;;;;;;;13.23;10.73;;;;;;;17.95;69.10;97104.97;5055310;28;20461;-67
2021/06/10 02:51:10;;;;;;;13.77;12.37;;;;;;;17.87;69.31;97103.31;5054171;28;20421;-65
2021/06/10 02:53:35;;;;;;;12.97;11.70;;;;;;;17.90;69.80;97102.09;5053744;28;20222;-67
2021/06/10 02:56:04;;;;;;;16.07;13.03;;;;;;;17.96;69.45;97098.63;5054115;28;20418;-68
2021/06/10 02:58:31;;;;;;;13.50;12.20;;;;;;;17.94;69.61;97098.03;5022037;28;20175;-67
2021/06/10 03:00:56;;;;;;;13.93;12.40;;;;;;;17.88;70.05;97093.53;5054382;28;20797;-67
2021/06/10 03:03:23;;;;;;;14.43;13.03;;;;;;;17.75;70.67;97091.69;5046270;28;20453;-65
2021/06/10 03:05:49;;;;;;;14.57;13.07;;;;;;;17.51;71.84;97093.88;5049658;28;20197;-68
2021/06/10 03:08:16;;;;;;;16.73;13.37;;;;;;;17.39;72.16;97088.31;5054474;28;20457;-65
2021/06/10 03:10:43;;;;;;;13.63;12.30;;;;;;;17.44;72.16;97093.00;5043518;28;20434;-67
2021/06/10 03:13:13;;;;;;;14.97;13.13;;;;;;;17.50;71.94;97081.63;5051040;28;20441;-67
2021/06/10 03:15:39;;;;;;;15.63;12.93;;;;;;;17.48;71.88;97094.25;5045954;28;20435;-67
2021/06/10 03:18:06;;;;;;;14.53;13.10;;;;;;;17.35;72.64;97084.41;5032747;28;20437;-67
2021/06/10 03:20:31;;;;;;;14.17;12.67;;;;;;;17.53;71.61;97086.50;5054464;28;20505;-68
2021/06/10 03:22:57;;;;;;;20.10;14.00;;;;;;;17.40;72.47;97089.94;5038441;28;20569;-66
2021/06/10 03:25:23;;;;;;;16.17;13.13;;;;;;;17.64;71.26;97090.41;5046886;28;20198;-67
2021/06/10 03:27:50;;;;;;;13.27;11.97;;;;;;;17.65;71.00;97094.69;5053825;28;20690;-67
2021/06/10 03:30:16;;;;;;;15.07;13.40;;;;;;;17.65;70.78;97092.84;5051578;28;20528;-66
2021/06/10 03:32:43;;;;;;;17.73;13.13;;;;;;;17.41;71.99;97096.03;5049263;28;20441;-65
2021/06/10 03:35:09;;;;;;;13.90;12.27;;;;;;;17.41;72.08;97088.09;5039794;28;20575;-66
2021/06/10 03:37:36;;;;;;;14.30;12.90;;;;;;;17.29;73.07;97091.31;5054296;28;20421;-66
2021/06/10 03:40:04;;;;;;;14.10;12.70;;;;;;;17.43;72.25;97101.97;5054274;28;20429;-67
2021/06/10 03:42:30;;;;;;;14.07;12.67;;;;;;;17.60;71.33;97087.34;5055749;28;20827;-68
2021/06/10 03:44:57;;;;;;;14.17;12.77;;;;;;;17.64;71.22;97093.88;5053885;28;20422;-68
2021/06/10 03:47:22;;;;;;;13.10;11.80;;;;;;;17.75;70.73;97095.13;5052067;28;20187;-67
2021/06/10 03:49:48;;;;;;;14.00;12.43;;;;;;;17.75;70.72;97089.84;5053350;28;20497;-66
2021/06/10 03:52:13;;;;;;;13.90;12.53;;;;;;;17.83;70.11;97096.78;5054255;28;20214;-66
2021/06/10 03:54:39;;;;;;;14.37;12.97;;;;;;;17.91;69.81;97095.78;5054450;28;20553;-67
2021/06/10 03:57:08;;;;;;;12.87;11.57;;;;;;;17.94;69.55;97093.53;5054870;28;20187;-67
2021/06/10 03:59:33;;;;;;;13.07;11.63;;;;;;;17.94;69.60;97093.53;5055208;28;20178;-66
2021/06/10 04:01:59;;;;;;;14.03;12.40;;;;;;;18.04;69.25;97090.53;5054530;28;20409;-67
2021/06/10 04:04:26;;;;;;;15.30;12.50;;;;;;;17.86;69.79;97096.38;5029300;28;20688;-67
2021/06/10 04:06:53;;;;;;;13.63;12.00;;;;;;;17.80;70.63;97097.16;5054409;28;20183;-67
2021/06/10 04:09:18;;;;;;;14.03;12.63;;;;;;;17.88;70.40;97093.53;5054612;28;20457;-66
2021/06/10 04:11:44;;;;;;;14.70;12.73;;;;;;;17.64;71.25;97093.88;5054265;28;20575;-67
2021/06/10 04:14:10;;;;;;;13.50;12.20;;;;;;;17.98;70.25;97099.28;5053559;28;20198;-67
2021/06/10 04:16:35;;;;;;;13.67;12.27;;;;;;;17.95;70.11;97100.47;5054484;28;20187;-67
2021/06/10 04:19:01;;;;;;;13.87;12.47;;;;;;;17.95;70.13;97097.81;5055066;28;20175;-67
2021/06/10 04:21:27;;;;;;;14.83;13.00;;;;;;;18.19;69.90;97100.13;5049934;28;20179;-67
2021/06/10 04:23:52;;;;;;;13.13;11.87;;;;;;;18.33;69.19;97100.94;5053074;28;20215;-66
2021/06/10 04:26:19;;;;;;;18.70;13.67;;;;;;;18.44;68.85;97099.50;5054411;28;20187;-68
2021/06/10 04:28:45;;;;;;;15.73;13.50;;;;;;;18.52;68.66;97093.97;5054158;28;20209;-67
2021/06/10 04:31:12;;;;;;;16.20;13.53;;;;;;;18.58;68.50;97096.63;5054359;28;20778;-65
2021/06/10 04:33:38;;;;;;;14.70;13.13;;;;;;;18.71;68.26;97095.78;5051909;28;20776;-67
2021/06/10 04:36:04;;;;;;;14.70;13.10;;;;;;;18.84;68.08;97092.28;5048623;28;20428;-66
2021/06/10 04:38:30;;;;;;;14.43;12.93;;;;;;;18.96;67.49;97099.66;5054566;28;20206;-66
2021/06/10 04:40:55;;;;;;;14.43;12.73;;;;;;;19.03;67.31;97100.44;5053587;28;20441;-67
2021/06/10 04:43:21;;;;;;;13.50;12.10;;;;;;;19.13;67.13;97094.69;5053825;28;20544;-67
2021/06/10 04:45:46;;;;;;;15.10;12.80;;;;;;;19.18;66.83;97100.19;5054201;28;20183;-66
2021/06/10 04:48:12;;;;;;;13.27;11.97;;;;;;;19.27;66.53;97095.47;5053673;28;20261;-67
2021/06/10 04:50:38;;;;;;;14.17;12.67;;;;;;;19.36;66.43;97099.50;5052288;28;20190;-66
2021/06/10 04:53:04;;;;;;;16.10;14.13;;;;;;;19.32;66.08;97104.44;5053634;28;20203;-66
2021/06/10 04:55:31;;;;;;;14.83;13.23;;;;;;;19.42;65.72;97098.66;5053684;28;20639;-66
2021/06/10 04:57:56;;;;;;;16.47;13.90;;;;;;;19.58;65.65;97097.38;5054021;28;20786;-66
2021/06/10 05:00:22;;;;;;;13.37;11.97;;;;;;;19.73;65.42;97101.56;5052389;28;20422;-66
2021/06/10 05:02:48;;;;;;;12.43;11.17;;;;;;;19.87;65.03;97100.47;5052747;28;20210;-67
2021/06/10 05:05:14;;;;;;;12.20;11.00;;;;;;;20.01;64.61;97100.41;5038495;28;20423;-67
2021/06/10 05:07:39;;;;;;;14.10;10.97;;;;;;;20.14;63.84;97107.47;5053494;28;20215;-66
2021/06/10 05:10:06;;;;;;;13.90;12.27;;;;;;;20.26;63.58;97097.75;5053844;28;20183;-66
2021/06/10 05:12:31;;;;;;;11.00;9.80;;;;;;;20.38;63.61;97101.34;5053880;28;20719;-66
2021/06/10 05:14:57;;;;;;;12.60;11.30;;;;;;;20.39;63.15;97100.31;5053100;28;20422;-67
2021/06/10 05:17:23;;;;;;;12.90;10.97;;;;;;;20.52;63.04;97099.38;5047204;28;20187;-67
2021/06/10 05:19:49;;;;;;;12.97;10.27;;;;;;;20.61;62.31;97094.59;5043939;28;20190;-67
2021/06/10 05:22:14;;;;;;;13.00;10.73;;;;;;;20.75;62.09;97089.16;5050194;28;20459;-66
2021/06/10 05:24:42;;;;;;;11.83;10.63;;;;;;;20.92;61.71;97100.84;5052036;28;20265;-66
2021/06/10 05:27:09;;;;;;;11.90;10.80;;;;;;;21.11;60.95;97099.00;5053438;28;20339;-67
2021/06/10 05:29:38;;;;;;;12.20;11.00;;;;;;;21.17;60.68;97097.31;5052974;28;21010;-67
2021/06/10 05:32:08;;;;;;;10.47;9.50;;;;;;;21.39;60.40;97100.31;5052592;28;20441;-66
2021/06/10 05:34:34;;;;;;;13.00;10.60;;;;;;;21.54;59.84;97091.94;5041351;28;20437;-67
2021/06/10 05:37:00;;;;;;;11.17;10.17;;;;;;;21.71;58.99;97096.66;5052628;28;20450;-67
2021/06/10 05:39:25;;;;;;;11.33;10.33;;;;;;;21.81;59.02;97096.91;5053067;28;20420;-67
2021/06/10 05:41:53;;;;;;;15.10;11.10;;;;;;;22.03;58.46;97101.75;5054395;28;20191;-68
2021/06/10 05:44:18;;;;;;;11.20;10.10;;;;;;;22.06;58.25;97098.59;5045173;28;20181;-66
2021/06/10 05:46:44;;;;;;;10.50;9.50;;;;;;;22.03;58.34;97104.41;5057563;28;20464;-67
2021/06/10 05:49:11;;;;;;;13.33;10.07;;;;;;;22.22;58.01;97097.94;5053390;28;20207;-66
2021/06/10 05:51:36;;;;;;;15.60;9.17;;;;;;;22.46;57.58;97107.88;5053913;28;20209;-67
2021/06/10 05:54:02;;;;;;;10.07;9.03;;;;;;;22.68;56.78;97108.13;5052005;28;20449;-65
2021/06/10 05:56:28;;;;;;;11.70;9.10;;;;;;;22.49;56.56;97107.44;5055252;28;20179;-67
2021/06/10 05:58:53;;;;;;;9.83;8.83;;;;;;;22.74;56.21;97109.84;5058034;28;20425;-67
2021/06/10 06:01:19;;;;;;;8.83;8.00;;;;;;;22.63;56.43;97108.00;5035918;28;20192;-66
2021/06/10 06:03:45;;;;;;;8.33;7.63;;;;;;;22.87;55.90;97108.81;5020954;28;20206;-67
2021/06/10 06:06:10;;;;;;;9.10;8.30;;;;;;;22.92;55.69;97113.44;5051061;28;20186;-66
2021/06/10 06:08:36;;;;;;;7.90;7.17;;;;;;;23.16;54.96;97109.69;5053332;28;20205;-67
2021/06/10 06:11:02;;;;;;;8.33;7.10;;;;;;;22.55;55.88;97117.16;5052640;28;20236;-66
2021/06/10 06:13:47;;;;;;;8.03;6.97;;;;;;;22.81;55.32;97115.88;5048349;28;20230;-66
2021/06/10 06:16:15;;;;;;;8.00;7.30;;;;;;;22.84;54.83;97118.09;5050032;28;20267;-64
2021/06/10 06:18:41;;;;;;;7.97;7.27;;;;;;;;;;5052745;28;20453;-66
2021/06/10 06:21:07;;;;;;;8.30;7.57;;;;;;;23.13;54.00;97118.19;5048263;28;20430;-66
2021/06/10 06:23:33;;;;;;;7.17;6.57;;;;;;;23.59;53.12;97118.31;5052421;28;20205;-66
2021/06/10 06:25:59;;;;;;;7.67;6.97;;;;;;;23.47;52.63;97123.69;5052775;28;20425;-66
2021/06/10 06:28:25;;;;;;;8.07;7.30;;;;;;;23.83;51.83;97120.06;5053634;28;20573;-65
2021/06/10 06:30:51;;;;;;;17.87;9.30;;;;;;;23.60;52.36;97127.97;5052487;28;20434;-66
2021/06/10 06:33:16;;;;;;;21.93;10.60;;;;;;;23.39;52.32;97123.25;5053139;28;20333;-67
2021/06/10 06:35:43;;;;;;;19.13;10.10;;;;;;;23.49;51.18;97128.00;5047240;28;20233;-66
2021/06/10 06:38:10;;;;;;;19.20;9.23;;;;;;;23.80;49.33;97121.38;5049842;28;20178;-67
2021/06/10 06:40:35;;;;;;;20.73;10.00;;;;;;;23.79;49.87;97117.06;5048518;28;20438;-65
2021/06/10 06:43:01;;;;;;;32.60;13.70;;;;;;;23.65;50.04;97132.59;5049740;28;20535;-67
2021/06/10 06:45:27;;;;;;;7.53;6.80;;;;;;;24.49;48.73;97125.78;5032424;28;20179;-67
2021/06/10 06:47:52;;;;;;;17.20;7.73;;;;;;;24.75;47.05;97118.16;5053332;28;20207;-67
2021/06/10 06:50:18;;;;;;;7.97;7.27;;;;;;;24.87;46.54;97128.75;5052665;28;20543;-65
2021/06/10 06:52:44;;;;;;;7.13;6.53;;;;;;;25.10;46.51;97127.72;5055609;28;20286;-66
2021/06/10 06:55:11;;;;;;;14.77;9.07;;;;;;;25.42;46.20;97124.41;5054126;28;20215;-67
2021/06/10 06:57:36;;;;;;;21.30;11.47;;;;;;;24.68;47.61;97131.69;5052947;28;20837;-68
2021/06/10 07:00:04;;;;;;;33.17;13.53;;;;;;;24.21;48.07;97129.31;5036820;28;20419;-69
2021/06/10 07:02:30;;;;;;;9.97;8.93;;;;;;;23.99;48.74;97130.03;5035637;28;20295;-69
2021/06/10 07:04:55;;;;;;;10.40;9.50;;;;;;;24.27;48.11;97136.41;5021661;28;20419;-67
2021/06/10 07:07:21;;;;;;;10.93;9.60;;;;;;;23.84;49.66;97132.38;5058431;28;20183;-66
2021/06/10 07:09:46;;;;;;;9.43;8.63;;;;;;;24.00;49.79;97139.69;5058480;28;20218;-67
2021/06/10 07:12:12;;;;;;;11.73;9.03;;;;;;;24.25;49.32;97143.06;5056861;28;20206;-65
2021/06/10 07:14:38;;;;;;;10.07;8.97;;;;;;;24.53;48.90;97142.16;5054038;28;20194;-66
2021/06/10 07:17:03;;;;;;;10.97;10.00;;;;;;;24.01;50.35;97143.97;5026316;28;20192;-65
2021/06/10 07:19:29;;;;;;;12.03;10.80;;;;;;;24.62;48.28;97150.59;5060782;28;20175;-65
2021/06/10 07:21:55;;;;;;;11.00;10.00;;;;;;;24.78;48.26;97146.31;5058150;28;20202;-67
2021/06/10 07:24:21;;;;;;;11.13;10.03;;;;;;;25.27;46.52;97143.78;5059291;28;20219;-66
2021/06/10 07:26:46;;;;;;;9.73;8.83;;;;;;;25.17;47.24;97142.81;5050266;28;20194;-67
2021/06/10 07:29:15;;;;;;;9.93;8.50;;;;;;;25.40;47.07;97150.63;5038020;28;20309;-68
2021/06/10 07:31:41;;;;;;;10.33;9.43;;;;;;;24.60;48.79;97150.03;5056751;28;20256;-65
2021/06/10 07:34:07;;;;;;;10.10;9.10;;;;;;;25.08;48.09;97155.81;5060057;28;20828;-67
2021/06/10 07:36:33;;;;;;;8.80;8.00;;;;;;;25.86;46.19;97145.00;5043931;28;20418;-67
2021/06/10 07:39:03;;;;;;;16.33;11.50;;;;;;;26.02;45.79;97143.25;5054478;28;20174;-68
2021/06/10 07:41:29;;;;;;;12.03;10.03;;;;;;;26.00;45.66;97144.59;5062027;28;20452;-67
2021/06/10 07:43:54;;;;;;;12.23;10.23;;;;;;;25.13;47.98;97150.56;5049193;28;20530;-67
2021/06/10 07:46:20;;;;;;;11.37;9.73;;;;;;;26.37;45.04;97149.25;5039918;28;20184;-65
2021/06/10 07:48:46;;;;;;;43.47;21.20;;;;;;;26.48;44.59;97152.84;5047426;28;20206;-66
2021/06/10 07:51:12;;;;;;;18.93;11.53;;;;;;;27.07;43.32;97153.78;5055922;28;20425;-65
2021/06/10 07:53:38;;;;;;;17.40;11.60;;;;;;;27.06;44.15;97157.53;5046625;28;20484;-67
2021/06/10 07:56:04;;;;;;;9.33;8.37;;;;;;;27.04;43.79;97154.31;5054272;28;20626;-67
2021/06/10 07:58:31;;;;;;;9.70;8.80;;;;;;;27.08;44.34;97153.56;5041004;28;20470;-66
2021/06/10 08:00:57;;;;;;;7.83;7.23;;;;;;;27.28;43.63;97155.50;5056022;28;20418;-66
2021/06/10 08:03:23;;;;;;;9.80;8.90;;;;;;;27.34;43.79;97150.97;5055234;28;21158;-66
2021/06/10 08:05:49;;;;;;;7.80;7.17;;;;;;;27.16;44.32;97151.41;5055056;28;20423;-67
2021/06/10 08:08:15;;;;;;;8.90;7.40;;;;;;;27.42;43.67;97150.47;5054736;28;20202;-66
2021/06/10 08:10:41;;;;;;;9.00;7.90;;;;;;;27.35;43.53;97151.78;5044559;28;20419;-65
2021/06/10 08:13:11;;;;;;;9.33;7.20;;;;;;;27.68;43.01;97147.06;5041187;28;20461;-66
2021/06/10 08:15:37;;;;;;;12.77;11.50;;;;;;;27.28;44.07;97142.06;5036334;28;20212;-66
2021/06/10 08:18:03;;;;;;;8.50;7.80;;;;;;;27.22;44.04;97148.50;5049828;28;20426;-67
2021/06/10 08:20:30;;;;;;;9.13;8.20;;;;;;;27.46;43.41;97149.97;5052619;28;20415;-64
2021/06/10 08:23:00;;;;;;;7.80;7.17;;;;;;;27.47;44.01;97146.22;5051553;28;20441;-68
2021/06/10 08:25:33;;;;;;;7.93;7.33;;;;;;;27.92;42.85;97139.34;5040849;28;20413;-66
2021/06/10 08:28:02;;;;;;;8.43;6.97;;;;;;;26.76;45.45;97145.53;5057906;28;20982;-67
2021/06/10 08:30:28;;;;;;;9.40;8.60;;;;;;;25.92;47.29;97141.31;5053991;28;20411;-66
2021/06/10 08:32:54;;;;;;;8.50;7.73;;;;;;;26.78;45.52;97141.53;5049288;28;20446;-68
2021/06/10 08:35:20;;;;;;;11.20;9.27;;;;;;;26.79;45.01;97139.63;5054813;28;20424;-67
2021/06/10 08:37:46;;;;;;;9.10;8.20;;;;;;;26.48;45.58;97145.56;5055033;28;20174;-68
2021/06/10 08:40:13;;;;;;;9.53;8.73;;;;;;;26.29;46.21;97134.41;5036311;28;20196;-66
2021/06/10 08:42:41;;;;;;;9.60;8.70;;;;;;;26.30;46.46;97144.09;5054166;28;20932;-68
2021/06/10 08:45:14;;;;;;;11.93;9.27;;;;;;;27.00;44.64;97143.25;5045505;28;21030;-67
2021/06/10 08:47:42;;;;;;;11.47;9.67;;;;;;;26.69;44.96;97140.38;5058489;28;20413;-68
2021/06/10 08:50:12;;;;;;;10.43;9.33;;;;;;;26.67;45.61;97137.91;5057749;28;20436;-67
2021/06/10 08:52:37;;;;;;;8.87;8.00;;;;;;;27.98;42.91;97138.25;5054348;28;20820;-66
2021/06/10 08:55:04;;;;;;;10.20;8.80;;;;;;;28.14;42.41;97135.63;5045687;28;20420;-66
2021/06/10 08:57:30;;;;;;;11.60;8.27;;;;;;;28.04;42.12;97129.13;5045756;28;20218;-66
2021/06/10 08:59:56;;;;;;;10.10;9.07;;;;;;;28.17;41.83;97135.09;5037555;28;20423;-69
2021/06/10 09:02:21;;;;;;;10.73;9.63;;;;;;;28.11;41.82;97131.59;5051604;28;20437;-68
2021/06/10 09:04:47;;;;;;;10.73;9.80;;;;;;;28.38;41.52;97127.00;5053157;28;20195;-66
2021/06/10 09:07:13;;;;;;;9.63;8.73;;;;;;;29.32;39.85;97133.88;5053803;28;20191;-67
2021/06/10 09:09:43;;;;;;;11.03;9.97;;;;;;;28.86;40.21;97130.22;5052675;28;20206;-65
2021/06/10 09:12:11;;;;;;;9.83;8.93;;;;;;;28.82;40.42;97129.16;5052806;28;20186;-66
2021/06/10 09:14:57;;;;;;;9.93;8.90;;;;;;;27.71;42.58;97142.00;5044821;28;20626;-67
2021/06/10 09:17:35;;;;;;;9.70;8.90;;;;;;;28.09;42.37;97132.94;5052727;28;20417;-68
2021/06/10 09:20:01;;;;;;;12.83;9.47;;;;;;;28.87;40.28;97131.03;5052185;28;20792;-65
2021/06/10 09:22:34;;;;;;;12.43;9.73;;;;;;;29.25;39.72;97142.25;5049452;28;20539;-65
2021/06/10 09:25:08;;;;;;;13.97;9.40;;;;;;;28.91;40.33;97138.31;5053758;28;20447;-65
2021/06/10 09:27:34;;;;;;;13.40;11.17;;;;;;;28.32;41.46;97140.50;5054083;28;20417;-67
2021/06/10 09:30:00;;;;;;;14.10;12.67;;;;;;;28.19;41.00;97136.44;5054706;28;20544;-68
2021/06/10 09:32:29;;;;;;;11.70;10.50;;;;;;;28.89;40.67;97128.88;5055007;28;20209;-66
2021/06/10 09:34:59;;;;;;;17.00;9.40;;;;;;;29.14;40.27;97132.59;5053833;28;20429;-67
2021/06/10 09:37:30;;;;;;;12.60;11.07;;;;;;;27.96;41.87;97145.81;5035816;28;20777;-65
2021/06/10 09:39:57;;;;;;;12.57;10.67;;;;;;;28.66;41.04;97128.34;5053360;28;20433;-67
2021/06/10 09:42:27;;;;;;;11.43;9.37;;;;;;;28.73;40.66;97128.09;5047523;28;20443;-67
2021/06/10 09:45:00;;;;;;;9.97;9.17;;;;;;;29.56;38.90;97129.47;5040944;28;20885;-67
2021/06/10 09:47:36;;;;;;;9.70;8.90;;;;;;;30.29;37.27;97120.91;5038010;28;20421;-67
2021/06/10 09:50:20;;;;;;;12.03;10.20;;;;;;;30.11;37.56;97114.31;5054568;28;20895;-67
2021/06/10 09:52:57;;;;;;;9.93;9.10;;;;;;;28.94;39.90;97132.38;5054953;28;20453;-67
2021/06/10 09:55:31;;;;;;;11.30;10.10;;;;;;;28.39;41.29;97137.53;5059559;28;20444;-65
2021/06/10 09:58:05;;;;;;;10.57;9.30;;;;;;;28.59;41.50;97136.72;5053962;28;20528;-66
2021/06/10 10:00:30;;;;;;;12.63;9.73;;;;;;;28.38;41.44;97135.09;5053649;28;20571;-65
2021/06/10 10:02:56;;;;;;;12.07;10.87;;;;;;;28.11;42.29;97130.75;5053459;28;20928;-67
2021/06/10 10:05:23;;;;;;;14.97;10.83;;;;;;;27.54;43.50;97127.94;5050024;28;20183;-65
2021/06/10 10:07:49;;;;;;;13.40;10.50;;;;;;;27.17;44.44;97128.84;5045683;28;20211;-68
2021/06/10 10:10:15;;;;;;;11.83;10.77;;;;;;;27.33;44.34;97133.22;5059862;28;20421;-66
2021/06/10 10:12:43;;;;;;;11.53;10.53;;;;;;;27.20;44.37;97129.13;5056001;28;20472;-67
2021/06/10 10:15:09;;;;;;;13.07;11.40;;;;;;;27.38;44.06;97124.34;5044802;28;20179;-63
2021/06/10 10:17:36;;;;;;;13.10;11.80;;;;;;;26.91;45.17;97126.81;5052311;28;20463;-67
2021/06/10 10:20:04;;;;;;;13.63;11.87;;;;;;;27.02;44.70;97125.00;5035447;28;20423;-65
2021/06/10 10:22:31;;;;;;;12.50;11.30;;;;;;;27.04;44.50;97120.19;5032023;28;20444;-66
2021/06/10 10:25:00;;;;;;;14.03;12.63;;;;;;;27.05;44.54;97121.78;5034822;28;20426;-66
2021/06/10 10:27:25;;;;;;;15.27;13.77;;;;;;;27.00;44.09;97124.44;5036384;28;20417;-67
2021/06/10 10:29:52;;;;;;;15.50;12.93;;;;;;;26.85;43.56;97122.50;5050256;28;20483;-66
2021/06/10 10:32:40;;;;;;;13.47;12.17;;;;;;;26.40;44.73;97116.50;5050753;28;20215;-66
2021/06/10 10:35:21;;;;;;;13.53;12.33;;;;;;;26.99;44.39;97117.44;5035225;28;20519;-68
2021/06/10 10:37:51;;;;;;;13.33;11.97;;;;;;;27.60;43.60;97118.78;5051507;28;20908;-67
2021/06/10 10:40:21;;;;;;;12.87;11.70;;;;;;;27.64;43.40;97117.19;5055176;28;20436;-66
2021/06/10 10:42:47;;;;;;;13.10;11.90;;;;;;;27.95;42.56;97111.88;5055953;28;20433;-67
2021/06/10 10:45:19;;;;;;;12.10;11.07;;;;;;;28.38;42.18;97108.16;5029115;28;20431;-67
2021/06/10 10:48:03;;;;;;;13.30;12.10;;;;;;;28.99;40.51;97104.56;5047295;28;20238;-68
2021/06/10 10:50:40;;;;;;;13.00;11.80;;;;;;;29.53;38.69;97103.03;5029028;28;20451;-68
2021/06/10 10:53:15;;;;;;;13.77;12.40;;;;;;;30.00;36.94;97091.97;5048072;28;20800;-67
2021/06/10 10:55:42;;;;;;;18.20;11.60;;;;;;;30.28;35.99;97082.28;5055427;28;20424;-66
2021/06/10 10:58:18;;;;;;;12.67;11.57;;;;;;;30.67;35.95;97083.31;5055189;28;20417;-66
2021/06/10 11:00:47;;;;;;;12.60;11.40;;;;;;;30.64;35.76;97083.88;5053980;28;20519;-66
2021/06/10 11:03:25;;;;;;;13.60;12.33;;;;;;;30.94;34.67;97090.84;5054717;28;20445;-66
2021/06/10 11:05:51;;;;;;;12.90;11.60;;;;;;;31.22;34.08;97085.69;5055248;28;20417;-67
2021/06/10 11:08:17;;;;;;;14.10;12.70;;;;;;;30.24;35.10;97075.03;5048898;28;20449;-68
2021/06/10 11:10:52;;;;;;;13.97;12.57;;;;;;;29.88;36.48;97076.88;5026349;28;20826;-67
2021/06/10 11:13:28;;;;;;;13.30;12.07;;;;;;;29.05;37.89;97075.69;5053112;28;20214;-67
2021/06/10 11:16:13;;;;;;;13.57;12.30;;;;;;;28.94;38.75;97067.66;5046781;28;20927;-67
2021/06/10 11:18:50;;;;;;;14.77;13.00;;;;;;;29.12;38.11;97068.94;5054813;28;20782;-67
2021/06/10 11:21:41;;;;;;;13.70;12.53;;;;;;;29.38;38.34;97065.31;5050531;28;20476;-67
2021/06/10 11:24:21;;;;;;;13.20;12.10;;;;;;;28.85;39.35;97053.13;5038030;28;20488;-68